»·PEaware :: SWA19 KBUR-KLAS

SWA19 :: KBUR-KLAS

FLIGHT INFORMATION

Flight Status: Arrived
Operator:
Southwest Airlines
More flights by this operator :: More flights under this callsign
Pilot: Camron S. (27302)
Aircraft: BOEING 737-800
(B738)
More flights by this aircraft type
Origin: KBUR Bob Hope-Burbank
United States
Destination: KLAS McCarran Intl
United States
More flights between these airports :: More routes between these airports
Route: SLAPP1 MISEN KEPEC6
File this flight plan on PilotEdge
Remarks: I-5 RATING
Altitude:
(Current/Filed)
23,000ft
Speed:
(Current/Filed)
290kts
Departed: 14-Jan-20 12:49 PM
Arrived: 14-Jan-20 01:41 PM
Distance/Time
Traveled:
194nm/0:52
Distance/Time
To Go:
Arrived

Flight Plot

Page will automatically refresh every two minutes.

Flight plan parsing failed; only flown route is shown


Map Options




Map Legend


Flown Route
Filed Route
Departure Airport
Arrival Airport
Navaid (VOR, NDB)
Fix

Horizontal Profiles

Position Reports

Time Latitude Longitude Heading Altitude Ground
Speed
14-Jan-20 12:36 34.196809 -118.351970 179 703ft 0kts
14-Jan-20 12:37 34.196809 -118.351970 179 703ft 0kts
14-Jan-20 12:38 34.196809 -118.351970 179 703ft 0kts
14-Jan-20 12:39 34.196809 -118.351970 179 703ft 0kts
14-Jan-20 12:40 34.196809 -118.351970 179 703ft 0kts
14-Jan-20 12:41 34.196809 -118.351970 179 703ft 0kts
14-Jan-20 12:42 34.197198 -118.351747 270 703ft 1kts
14-Jan-20 12:43 34.197192 -118.351660 271 703ft 0kts
14-Jan-20 12:44 34.197194 -118.353478 271 706ft 16kts
14-Jan-20 12:45 34.201179 -118.356022 349 722ft 34kts
14-Jan-20 12:46 34.208972 -118.358189 347 760ft 20kts
14-Jan-20 12:47 34.208781 -118.359500 167 761ft 4kts
14-Jan-20 12:48 34.190777 -118.354627 167 1165ft 170kts
14-Jan-20 12:49 34.143364 -118.392553 221 3468ft 236kts
14-Jan-20 12:50 34.096126 -118.447590 222 4038ft 231kts
14-Jan-20 12:51 34.089738 -118.515355 323 4718ft 269kts
14-Jan-20 12:52 34.162744 -118.504948 21 6332ft 291kts
14-Jan-20 12:53 34.231345 -118.466648 29 10647ft 302kts
14-Jan-20 12:54 34.312863 -118.417829 19 13574ft 343kts
14-Jan-20 12:55 34.401784 -118.367212 19 16841ft 364kts
14-Jan-20 12:56 34.492892 -118.304311 35 18998ft 397kts
14-Jan-20 12:57 34.576516 -118.219102 34 19162ft 394kts
14-Jan-20 12:58 34.653967 -118.125818 56 19156ft 402kts
14-Jan-20 12:59 34.687939 -117.995099 76 19141ft 407kts
14-Jan-20 13:00 34.698811 -117.855021 85 21713ft 426kts
14-Jan-20 13:01 34.706835 -117.707364 87 23151ft 453kts
14-Jan-20 13:02 34.712569 -117.553253 87 23168ft 454kts
14-Jan-20 13:03 34.741785 -117.404501 70 23170ft 454kts
14-Jan-20 13:04 34.780281 -117.260246 70 23157ft 454kts
14-Jan-20 13:05 34.818942 -117.113983 70 23138ft 455kts
14-Jan-20 13:06 34.857600 -116.966922 71 23123ft 453kts
14-Jan-20 13:07 34.895975 -116.820121 71 23121ft 453kts
14-Jan-20 13:08 34.946491 -116.680617 53 23125ft 453kts
14-Jan-20 13:09 35.018049 -116.553871 51 23122ft 455kts
14-Jan-20 13:10 35.089607 -116.426742 51 23118ft 455kts
14-Jan-20 13:11 35.172862 -116.315594 41 23106ft 449kts
14-Jan-20 13:12 35.260260 -116.206112 41 23107ft 450kts
14-Jan-20 13:14 35.347495 -116.096369 41 23108ft 449kts
14-Jan-20 13:15 35.433916 -115.987305 41 22803ft 451kts
14-Jan-20 13:16 35.519773 -115.878577 41 22221ft 443kts
14-Jan-20 13:17 35.605071 -115.770206 41 20232ft 447kts
14-Jan-20 13:18 35.688402 -115.663796 41 16935ft 409kts
14-Jan-20 13:19 35.770372 -115.587511 14 14525ft 354kts
14-Jan-20 13:20 35.859036 -115.569724 355 13134ft 295kts
14-Jan-20 13:21 35.941720 -115.554875 19 12590ft 310kts
14-Jan-20 13:22 35.998689 -115.475014 61 12024ft 326kts
14-Jan-20 13:23 36.026749 -115.380722 79 11180ft 287kts
14-Jan-20 13:24 36.024406 -115.281085 93 10207ft 306kts
14-Jan-20 13:25 36.016913 -115.178894 92 8928ft 283kts
14-Jan-20 13:26 36.010910 -115.090369 90 8118ft 247kts
14-Jan-20 13:27 36.006049 -115.006602 99 8051ft 248kts
14-Jan-20 13:28 36.000782 -114.920996 98 8039ft 253kts
14-Jan-20 13:29 35.995542 -114.834042 98 8039ft 253kts
14-Jan-20 13:30 35.989828 -114.747431 99 8039ft 253kts
14-Jan-20 13:31 35.984159 -114.662087 98 8040ft 254kts
14-Jan-20 13:32 36.022997 -114.601954 0 8014ft 259kts
14-Jan-20 13:33 36.067389 -114.650930 271 7090ft 223kts
14-Jan-20 13:34 36.073087 -114.727598 267 6110ft 224kts
14-Jan-20 13:34 36.073412 -114.792083 265 5289ft 226kts
14-Jan-20 13:36 36.073584 -114.879327 265 5047ft 218kts
14-Jan-20 13:37 36.070168 -114.948140 260 4907ft 200kts
14-Jan-20 13:37 36.073681 -115.005476 268 4041ft 193kts
14-Jan-20 13:39 36.073315 -115.076452 272 2895ft 158kts
14-Jan-20 13:39 36.073669 -115.120628 271 2148ft 149kts
14-Jan-20 13:40 36.074840 -115.146120 306 2108ft 1kts
14-Jan-20 13:42 36.077780 -115.147019 312 2107ft 0kts
14-Jan-20 13:42 36.079584 -115.148281 27 2106ft 15kts

Navigation Log

Ident Type
Flight plan parsing failed, navigation log unavailable